sensor_id;sensor_type;location;lat;lon;timestamp;P1;durP1;ratioP1;P2;durP2;ratioP2
24455;SDS011;12628;50.860;5.714;2022-12-07T00:01:04;20.70;;;11.98;;
24455;SDS011;12628;50.860;5.714;2022-12-07T00:03:32;22.10;;;11.52;;
24455;SDS011;12628;50.860;5.714;2022-12-07T00:05:59;20.73;;;12.20;;
24455;SDS011;12628;50.860;5.714;2022-12-07T00:08:27;21.25;;;12.35;;
24455;SDS011;12628;50.860;5.714;2022-12-07T00:10:59;19.38;;;12.13;;
24455;SDS011;12628;50.860;5.714;2022-12-07T00:13:28;19.77;;;12.60;;
24455;SDS011;12628;50.860;5.714;2022-12-07T00:15:55;16.75;;;10.25;;
24455;SDS011;12628;50.860;5.714;2022-12-07T00:18:26;19.52;;;11.23;;
24455;SDS011;12628;50.860;5.714;2022-12-07T00:20:58;20.30;;;12.60;;
24455;SDS011;12628;50.860;5.714;2022-12-07T00:23:26;20.70;;;12.68;;
24455;SDS011;12628;50.860;5.714;2022-12-07T00:25:53;19.02;;;12.48;;
24455;SDS011;12628;50.860;5.714;2022-12-07T00:28:22;23.55;;;12.82;;
24455;SDS011;12628;50.860;5.714;2022-12-07T00:30:49;20.77;;;12.82;;
24455;SDS011;12628;50.860;5.714;2022-12-07T00:33:17;21.25;;;14.10;;
24455;SDS011;12628;50.860;5.714;2022-12-07T00:35:44;22.30;;;14.35;;
24455;SDS011;12628;50.860;5.714;2022-12-07T00:38:11;23.33;;;13.27;;
24455;SDS011;12628;50.860;5.714;2022-12-07T00:40:38;21.10;;;13.60;;
24455;SDS011;12628;50.860;5.714;2022-12-07T00:43:07;23.40;;;14.32;;
24455;SDS011;12628;50.860;5.714;2022-12-07T00:45:34;23.38;;;14.57;;
24455;SDS011;12628;50.860;5.714;2022-12-07T00:48:01;24.48;;;15.35;;
24455;SDS011;12628;50.860;5.714;2022-12-07T00:50:29;21.42;;;14.80;;
24455;SDS011;12628;50.860;5.714;2022-12-07T00:52:56;23.50;;;15.40;;
24455;SDS011;12628;50.860;5.714;2022-12-07T00:55:23;25.83;;;16.85;;
24455;SDS011;12628;50.860;5.714;2022-12-07T00:57:50;27.38;;;16.33;;
24455;SDS011;12628;50.860;5.714;2022-12-07T01:00:19;24.05;;;14.63;;
24455;SDS011;12628;50.860;5.714;2022-12-07T01:02:46;24.75;;;15.20;;
24455;SDS011;12628;50.860;5.714;2022-12-07T01:05:13;24.02;;;14.35;;
24455;SDS011;12628;50.860;5.714;2022-12-07T01:07:41;22.65;;;14.57;;
24455;SDS011;12628;50.860;5.714;2022-12-07T01:10:08;20.90;;;12.98;;
24455;SDS011;12628;50.860;5.714;2022-12-07T01:12:36;22.58;;;13.77;;
24455;SDS011;12628;50.860;5.714;2022-12-07T01:15:04;19.20;;;12.50;;
24455;SDS011;12628;50.860;5.714;2022-12-07T01:17:33;21.00;;;13.02;;
24455;SDS011;12628;50.860;5.714;2022-12-07T01:20:01;19.67;;;13.38;;
24455;SDS011;12628;50.860;5.714;2022-12-07T01:22:29;19.55;;;12.38;;
24455;SDS011;12628;50.860;5.714;2022-12-07T01:24:56;19.90;;;12.38;;
24455;SDS011;12628;50.860;5.714;2022-12-07T01:27:23;24.63;;;13.88;;
24455;SDS011;12628;50.860;5.714;2022-12-07T01:29:50;22.40;;;13.00;;
24455;SDS011;12628;50.860;5.714;2022-12-07T01:32:18;26.02;;;14.32;;
24455;SDS011;12628;50.860;5.714;2022-12-07T01:34:48;22.33;;;15.02;;
24455;SDS011;12628;50.860;5.714;2022-12-07T01:37:16;25.15;;;15.23;;
24455;SDS011;12628;50.860;5.714;2022-12-07T01:39:43;24.85;;;14.55;;
24455;SDS011;12628;50.860;5.714;2022-12-07T01:42:10;23.05;;;14.40;;
24455;SDS011;12628;50.860;5.714;2022-12-07T01:47:39;25.05;;;14.35;;
24455;SDS011;12628;50.860;5.714;2022-12-07T01:50:09;24.50;;;13.85;;
24455;SDS011;12628;50.860;5.714;2022-12-07T01:52:36;20.77;;;12.85;;
24455;SDS011;12628;50.860;5.714;2022-12-07T01:55:06;24.65;;;13.40;;
24455;SDS011;12628;50.860;5.714;2022-12-07T01:57:37;23.02;;;13.73;;
24455;SDS011;12628;50.860;5.714;2022-12-07T02:00:07;23.90;;;14.17;;
24455;SDS011;12628;50.860;5.714;2022-12-07T02:02:37;26.17;;;14.30;;
24455;SDS011;12628;50.860;5.714;2022-12-07T02:05:09;24.02;;;14.90;;
24455;SDS011;12628;50.860;5.714;2022-12-07T02:07:37;22.60;;;13.88;;
24455;SDS011;12628;50.860;5.714;2022-12-07T02:10:12;22.98;;;13.98;;
24455;SDS011;12628;50.860;5.714;2022-12-07T02:12:41;25.05;;;14.52;;
24455;SDS011;12628;50.860;5.714;2022-12-07T02:15:10;27.50;;;15.77;;
24455;SDS011;12628;50.860;5.714;2022-12-07T02:17:39;21.48;;;13.60;;
24455;SDS011;12628;50.860;5.714;2022-12-07T02:20:20;22.10;;;13.20;;
24455;SDS011;12628;50.860;5.714;2022-12-07T02:23:00;22.55;;;14.10;;
24455;SDS011;12628;50.860;5.714;2022-12-07T02:25:51;24.95;;;14.00;;
24455;SDS011;12628;50.860;5.714;2022-12-07T02:28:30;23.65;;;14.35;;
24455;SDS011;12628;50.860;5.714;2022-12-07T02:31:04;23.67;;;14.07;;
24455;SDS011;12628;50.860;5.714;2022-12-07T02:33:39;23.83;;;13.75;;
24455;SDS011;12628;50.860;5.714;2022-12-07T02:36:10;22.33;;;14.38;;
24455;SDS011;12628;50.860;5.714;2022-12-07T02:38:44;20.50;;;13.75;;
24455;SDS011;12628;50.860;5.714;2022-12-07T02:41:17;21.55;;;12.93;;
24455;SDS011;12628;50.860;5.714;2022-12-07T02:43:52;21.67;;;13.23;;
24455;SDS011;12628;50.860;5.714;2022-12-07T02:46:23;22.42;;;13.55;;
24455;SDS011;12628;50.860;5.714;2022-12-07T02:48:55;22.75;;;13.27;;
24455;SDS011;12628;50.860;5.714;2022-12-07T02:51:24;23.35;;;14.40;;
24455;SDS011;12628;50.860;5.714;2022-12-07T02:53:52;20.98;;;13.93;;
24455;SDS011;12628;50.860;5.714;2022-12-07T02:56:20;24.00;;;13.95;;
24455;SDS011;12628;50.860;5.714;2022-12-07T02:58:59;25.88;;;14.73;;
24455;SDS011;12628;50.860;5.714;2022-12-07T03:01:35;20.52;;;14.02;;
24455;SDS011;12628;50.860;5.714;2022-12-07T03:04:10;19.30;;;12.90;;
24455;SDS011;12628;50.860;5.714;2022-12-07T03:06:48;23.02;;;14.52;;
24455;SDS011;12628;50.860;5.714;2022-12-07T03:09:20;25.75;;;17.42;;
24455;SDS011;12628;50.860;5.714;2022-12-07T03:11:55;23.00;;;13.90;;
24455;SDS011;12628;50.860;5.714;2022-12-07T03:14:34;24.63;;;13.50;;
24455;SDS011;12628;50.860;5.714;2022-12-07T03:17:07;21.65;;;12.95;;
24455;SDS011;12628;50.860;5.714;2022-12-07T03:19:38;21.90;;;12.80;;
24455;SDS011;12628;50.860;5.714;2022-12-07T03:22:08;23.70;;;14.75;;
24455;SDS011;12628;50.860;5.714;2022-12-07T03:24:39;23.20;;;14.37;;
24455;SDS011;12628;50.860;5.714;2022-12-07T03:27:09;25.10;;;14.68;;
24455;SDS011;12628;50.860;5.714;2022-12-07T03:29:42;26.02;;;16.38;;
24455;SDS011;12628;50.860;5.714;2022-12-07T03:32:14;28.00;;;15.82;;
24455;SDS011;12628;50.860;5.714;2022-12-07T03:34:46;28.27;;;15.77;;
24455;SDS011;12628;50.860;5.714;2022-12-07T03:37:18;26.15;;;15.32;;
24455;SDS011;12628;50.860;5.714;2022-12-07T03:39:54;26.27;;;16.50;;
24455;SDS011;12628;50.860;5.714;2022-12-07T03:42:28;27.73;;;16.65;;
24455;SDS011;12628;50.860;5.714;2022-12-07T03:44:57;25.75;;;16.70;;
24455;SDS011;12628;50.860;5.714;2022-12-07T03:47:26;28.55;;;16.45;;
24455;SDS011;12628;50.860;5.714;2022-12-07T03:49:59;25.70;;;16.92;;
24455;SDS011;12628;50.860;5.714;2022-12-07T03:52:33;27.13;;;17.23;;
24455;SDS011;12628;50.860;5.714;2022-12-07T03:55:06;27.67;;;17.30;;
24455;SDS011;12628;50.860;5.714;2022-12-07T03:57:37;30.58;;;17.27;;
24455;SDS011;12628;50.860;5.714;2022-12-07T04:00:09;32.50;;;17.67;;
24455;SDS011;12628;50.860;5.714;2022-12-07T04:02:40;30.25;;;20.13;;
24455;SDS011;12628;50.860;5.714;2022-12-07T04:05:09;30.15;;;20.83;;
24455;SDS011;12628;50.860;5.714;2022-12-07T04:07:36;29.83;;;20.05;;
24455;SDS011;12628;50.860;5.714;2022-12-07T04:10:04;32.05;;;20.70;;
24455;SDS011;12628;50.860;5.714;2022-12-07T04:12:32;31.17;;;20.67;;
24455;SDS011;12628;50.860;5.714;2022-12-07T04:14:59;32.65;;;22.73;;
24455;SDS011;12628;50.860;5.714;2022-12-07T04:17:26;33.45;;;21.27;;
24455;SDS011;12628;50.860;5.714;2022-12-07T04:19:55;37.40;;;22.67;;
24455;SDS011;12628;50.860;5.714;2022-12-07T04:22:22;35.03;;;24.35;;
24455;SDS011;12628;50.860;5.714;2022-12-07T04:24:49;31.58;;;20.75;;
24455;SDS011;12628;50.860;5.714;2022-12-07T04:27:17;31.63;;;19.45;;
24455;SDS011;12628;50.860;5.714;2022-12-07T04:29:44;28.95;;;18.45;;
24455;SDS011;12628;50.860;5.714;2022-12-07T04:32:11;29.45;;;19.80;;
24455;SDS011;12628;50.860;5.714;2022-12-07T04:34:38;34.28;;;20.33;;
24455;SDS011;12628;50.860;5.714;2022-12-07T04:37:07;30.83;;;19.63;;
24455;SDS011;12628;50.860;5.714;2022-12-07T04:39:34;34.47;;;19.75;;
24455;SDS011;12628;50.860;5.714;2022-12-07T04:42:02;31.65;;;19.38;;
24455;SDS011;12628;50.860;5.714;2022-12-07T04:44:30;35.20;;;21.15;;
24455;SDS011;12628;50.860;5.714;2022-12-07T04:46:57;33.65;;;21.33;;
24455;SDS011;12628;50.860;5.714;2022-12-07T04:49:24;33.08;;;20.60;;
24455;SDS011;12628;50.860;5.714;2022-12-07T04:51:52;36.55;;;21.42;;
24455;SDS011;12628;50.860;5.714;2022-12-07T04:54:21;35.33;;;22.00;;
24455;SDS011;12628;50.860;5.714;2022-12-07T04:56:49;34.28;;;20.88;;
24455;SDS011;12628;50.860;5.714;2022-12-07T04:59:16;35.95;;;21.98;;
24455;SDS011;12628;50.860;5.714;2022-12-07T05:01:43;33.92;;;21.52;;
24455;SDS011;12628;50.860;5.714;2022-12-07T05:04:11;31.80;;;20.20;;
24455;SDS011;12628;50.860;5.714;2022-12-07T05:06:38;29.45;;;19.40;;
24455;SDS011;12628;50.860;5.714;2022-12-07T05:09:05;29.88;;;19.25;;
24455;SDS011;12628;50.860;5.714;2022-12-07T05:11:34;30.13;;;19.30;;
24455;SDS011;12628;50.860;5.714;2022-12-07T05:14:05;30.30;;;19.80;;
24455;SDS011;12628;50.860;5.714;2022-12-07T05:16:35;30.83;;;21.20;;
24455;SDS011;12628;50.860;5.714;2022-12-07T05:19:02;34.67;;;22.25;;
24455;SDS011;12628;50.860;5.714;2022-12-07T05:21:30;31.75;;;18.75;;
24455;SDS011;12628;50.860;5.714;2022-12-07T05:23:57;36.35;;;20.83;;
24455;SDS011;12628;50.860;5.714;2022-12-07T05:26:24;29.60;;;18.33;;
24455;SDS011;12628;50.860;5.714;2022-12-07T05:28:53;32.72;;;20.13;;
24455;SDS011;12628;50.860;5.714;2022-12-07T05:31:21;27.77;;;17.63;;
24455;SDS011;12628;50.860;5.714;2022-12-07T05:33:49;30.70;;;18.90;;
24455;SDS011;12628;50.860;5.714;2022-12-07T05:36:16;29.58;;;18.05;;
24455;SDS011;12628;50.860;5.714;2022-12-07T05:38:44;30.35;;;19.63;;
24455;SDS011;12628;50.860;5.714;2022-12-07T05:41:12;28.73;;;18.60;;
24455;SDS011;12628;50.860;5.714;2022-12-07T05:43:57;31.42;;;19.52;;
24455;SDS011;12628;50.860;5.714;2022-12-07T05:46:24;30.38;;;19.33;;
24455;SDS011;12628;50.860;5.714;2022-12-07T05:48:51;30.00;;;18.70;;
24455;SDS011;12628;50.860;5.714;2022-12-07T05:51:18;28.38;;;18.55;;
24455;SDS011;12628;50.860;5.714;2022-12-07T05:53:46;30.33;;;18.80;;
24455;SDS011;12628;50.860;5.714;2022-12-07T05:56:13;28.48;;;17.25;;
24455;SDS011;12628;50.860;5.714;2022-12-07T05:58:40;34.33;;;20.48;;
24455;SDS011;12628;50.860;5.714;2022-12-07T06:01:26;36.00;;;20.25;;
24455;SDS011;12628;50.860;5.714;2022-12-07T06:03:53;34.00;;;19.85;;
24455;SDS011;12628;50.860;5.714;2022-12-07T06:06:20;36.55;;;20.65;;
24455;SDS011;12628;50.860;5.714;2022-12-07T06:08:48;32.95;;;20.17;;
24455;SDS011;12628;50.860;5.714;2022-12-07T06:11:15;34.45;;;21.90;;
24455;SDS011;12628;50.860;5.714;2022-12-07T06:14:00;32.50;;;19.38;;
24455;SDS011;12628;50.860;5.714;2022-12-07T06:16:28;35.78;;;20.10;;
24455;SDS011;12628;50.860;5.714;2022-12-07T06:18:56;30.85;;;19.00;;
24455;SDS011;12628;50.860;5.714;2022-12-07T06:21:23;34.30;;;20.02;;
24455;SDS011;12628;50.860;5.714;2022-12-07T06:23:52;33.20;;;19.38;;
24455;SDS011;12628;50.860;5.714;2022-12-07T06:26:19;30.17;;;18.77;;
24455;SDS011;12628;50.860;5.714;2022-12-07T06:28:46;30.88;;;18.77;;
24455;SDS011;12628;50.860;5.714;2022-12-07T06:31:14;28.05;;;16.45;;
24455;SDS011;12628;50.860;5.714;2022-12-07T06:33:43;28.85;;;17.65;;
24455;SDS011;12628;50.860;5.714;2022-12-07T06:36:10;29.58;;;17.77;;
24455;SDS011;12628;50.860;5.714;2022-12-07T06:38:37;31.27;;;17.60;;
24455;SDS011;12628;50.860;5.714;2022-12-07T06:41:05;26.73;;;18.20;;
24455;SDS011;12628;50.860;5.714;2022-12-07T06:43:32;32.38;;;18.50;;
24455;SDS011;12628;50.860;5.714;2022-12-07T06:46:00;31.23;;;19.60;;
24455;SDS011;12628;50.860;5.714;2022-12-07T06:48:27;30.63;;;18.58;;
24455;SDS011;12628;50.860;5.714;2022-12-07T06:50:56;29.13;;;18.83;;
24455;SDS011;12628;50.860;5.714;2022-12-07T06:53:23;30.55;;;19.00;;
24455;SDS011;12628;50.860;5.714;2022-12-07T06:55:50;29.98;;;18.77;;
24455;SDS011;12628;50.860;5.714;2022-12-07T06:58:18;30.10;;;18.23;;
24455;SDS011;12628;50.860;5.714;2022-12-07T07:00:45;31.90;;;18.73;;
24455;SDS011;12628;50.860;5.714;2022-12-07T07:03:14;29.23;;;18.63;;
24455;SDS011;12628;50.860;5.714;2022-12-07T07:05:41;34.17;;;20.52;;
24455;SDS011;12628;50.860;5.714;2022-12-07T07:08:10;39.75;;;22.33;;
24455;SDS011;12628;50.860;5.714;2022-12-07T07:10:37;33.15;;;18.30;;
24455;SDS011;12628;50.860;5.714;2022-12-07T07:13:05;28.65;;;17.42;;
24455;SDS011;12628;50.860;5.714;2022-12-07T07:15:33;29.65;;;18.48;;
24455;SDS011;12628;50.860;5.714;2022-12-07T07:18:01;34.30;;;18.98;;
24455;SDS011;12628;50.860;5.714;2022-12-07T07:20:28;34.30;;;20.15;;
24455;SDS011;12628;50.860;5.714;2022-12-07T07:22:56;32.78;;;20.42;;
24455;SDS011;12628;50.860;5.714;2022-12-07T07:25:24;32.53;;;20.92;;
24455;SDS011;12628;50.860;5.714;2022-12-07T07:27:52;39.83;;;22.02;;
24455;SDS011;12628;50.860;5.714;2022-12-07T07:30:19;35.58;;;22.08;;
24455;SDS011;12628;50.860;5.714;2022-12-07T07:32:46;37.33;;;22.55;;
24455;SDS011;12628;50.860;5.714;2022-12-07T07:35:15;39.78;;;23.23;;
24455;SDS011;12628;50.860;5.714;2022-12-07T07:37:42;37.17;;;22.80;;
24455;SDS011;12628;50.860;5.714;2022-12-07T07:40:10;36.20;;;21.95;;
24455;SDS011;12628;50.860;5.714;2022-12-07T07:42:39;34.72;;;19.98;;
24455;SDS011;12628;50.860;5.714;2022-12-07T07:45:07;36.67;;;20.33;;
24455;SDS011;12628;50.860;5.714;2022-12-07T07:47:35;33.17;;;20.52;;
24455;SDS011;12628;50.860;5.714;2022-12-07T07:50:02;31.52;;;19.13;;
24455;SDS011;12628;50.860;5.714;2022-12-07T07:52:30;30.45;;;18.50;;
24455;SDS011;12628;50.860;5.714;2022-12-07T07:54:58;31.58;;;19.70;;
24455;SDS011;12628;50.860;5.714;2022-12-07T07:57:25;31.05;;;20.25;;
24455;SDS011;12628;50.860;5.714;2022-12-07T07:59:54;37.53;;;20.73;;
24455;SDS011;12628;50.860;5.714;2022-12-07T08:02:21;32.22;;;19.73;;
24455;SDS011;12628;50.860;5.714;2022-12-07T08:04:49;31.60;;;18.85;;
24455;SDS011;12628;50.860;5.714;2022-12-07T08:07:16;37.10;;;20.98;;
24455;SDS011;12628;50.860;5.714;2022-12-07T08:09:43;33.70;;;21.05;;
24455;SDS011;12628;50.860;5.714;2022-12-07T08:12:11;33.47;;;20.15;;
24455;SDS011;12628;50.860;5.714;2022-12-07T08:14:38;31.88;;;20.10;;
24455;SDS011;12628;50.860;5.714;2022-12-07T08:17:08;34.33;;;19.40;;
24455;SDS011;12628;50.860;5.714;2022-12-07T08:19:35;32.83;;;19.88;;
24455;SDS011;12628;50.860;5.714;2022-12-07T08:22:02;29.90;;;18.15;;
24455;SDS011;12628;50.860;5.714;2022-12-07T08:24:29;31.58;;;18.65;;
24455;SDS011;12628;50.860;5.714;2022-12-07T08:26:59;28.80;;;17.98;;
24455;SDS011;12628;50.860;5.714;2022-12-07T08:29:27;26.30;;;16.88;;
24455;SDS011;12628;50.860;5.714;2022-12-07T08:31:54;25.63;;;17.08;;
24455;SDS011;12628;50.860;5.714;2022-12-07T08:34:23;26.30;;;16.63;;
24455;SDS011;12628;50.860;5.714;2022-12-07T08:36:50;27.33;;;15.93;;
24455;SDS011;12628;50.860;5.714;2022-12-07T08:39:17;24.65;;;14.77;;
24455;SDS011;12628;50.860;5.714;2022-12-07T08:41:44;25.38;;;15.68;;
24455;SDS011;12628;50.860;5.714;2022-12-07T08:44:12;22.02;;;13.90;;
24455;SDS011;12628;50.860;5.714;2022-12-07T08:46:39;22.45;;;15.00;;
24455;SDS011;12628;50.860;5.714;2022-12-07T08:49:13;24.10;;;16.08;;
24455;SDS011;12628;50.860;5.714;2022-12-07T08:51:46;25.02;;;14.10;;
24455;SDS011;12628;50.860;5.714;2022-12-07T08:54:14;26.58;;;15.70;;
24455;SDS011;12628;50.860;5.714;2022-12-07T08:56:44;27.25;;;15.27;;
24455;SDS011;12628;50.860;5.714;2022-12-07T08:59:12;24.27;;;15.02;;
24455;SDS011;12628;50.860;5.714;2022-12-07T09:01:42;26.50;;;15.38;;
24455;SDS011;12628;50.860;5.714;2022-12-07T09:04:09;26.73;;;15.55;;
24455;SDS011;12628;50.860;5.714;2022-12-07T09:06:37;25.58;;;14.23;;
24455;SDS011;12628;50.860;5.714;2022-12-07T09:09:06;24.35;;;13.90;;
24455;SDS011;12628;50.860;5.714;2022-12-07T09:11:35;23.80;;;14.63;;
24455;SDS011;12628;50.860;5.714;2022-12-07T09:14:02;23.58;;;14.02;;
24455;SDS011;12628;50.860;5.714;2022-12-07T09:16:29;23.13;;;13.90;;
24455;SDS011;12628;50.860;5.714;2022-12-07T09:18:56;25.30;;;15.13;;
24455;SDS011;12628;50.860;5.714;2022-12-07T09:21:24;24.55;;;14.77;;
24455;SDS011;12628;50.860;5.714;2022-12-07T09:23:51;24.05;;;14.00;;
24455;SDS011;12628;50.860;5.714;2022-12-07T09:26:20;27.90;;;15.15;;
24455;SDS011;12628;50.860;5.714;2022-12-07T09:28:47;23.27;;;12.57;;
24455;SDS011;12628;50.860;5.714;2022-12-07T09:31:14;22.85;;;13.38;;
24455;SDS011;12628;50.860;5.714;2022-12-07T09:33:41;20.58;;;13.85;;
24455;SDS011;12628;50.860;5.714;2022-12-07T09:36:09;25.98;;;13.30;;
24455;SDS011;12628;50.860;5.714;2022-12-07T09:38:37;22.85;;;13.35;;
24455;SDS011;12628;50.860;5.714;2022-12-07T09:41:04;21.42;;;12.98;;
24455;SDS011;12628;50.860;5.714;2022-12-07T09:43:35;24.00;;;12.32;;
24455;SDS011;12628;50.860;5.714;2022-12-07T09:46:03;19.30;;;12.57;;
24455;SDS011;12628;50.860;5.714;2022-12-07T09:48:32;21.17;;;12.32;;
24455;SDS011;12628;50.860;5.714;2022-12-07T09:51:02;21.60;;;12.52;;
24455;SDS011;12628;50.860;5.714;2022-12-07T09:53:39;21.60;;;12.35;;
24455;SDS011;12628;50.860;5.714;2022-12-07T09:56:08;17.85;;;10.80;;
24455;SDS011;12628;50.860;5.714;2022-12-07T09:58:39;18.85;;;11.38;;
24455;SDS011;12628;50.860;5.714;2022-12-07T10:01:09;19.90;;;11.85;;
24455;SDS011;12628;50.860;5.714;2022-12-07T10:03:40;18.70;;;12.13;;
24455;SDS011;12628;50.860;5.714;2022-12-07T10:06:11;18.45;;;11.02;;
24455;SDS011;12628;50.860;5.714;2022-12-07T10:08:39;17.05;;;10.98;;
24455;SDS011;12628;50.860;5.714;2022-12-07T10:11:08;19.98;;;11.65;;
24455;SDS011;12628;50.860;5.714;2022-12-07T10:13:37;20.80;;;11.85;;
24455;SDS011;12628;50.860;5.714;2022-12-07T10:16:25;19.52;;;13.18;;
24455;SDS011;12628;50.860;5.714;2022-12-07T10:19:17;22.02;;;12.40;;
24455;SDS011;12628;50.860;5.714;2022-12-07T10:21:59;17.50;;;10.90;;
24455;SDS011;12628;50.860;5.714;2022-12-07T10:24:27;16.83;;;9.57;;
24455;SDS011;12628;50.860;5.714;2022-12-07T10:26:55;18.85;;;10.85;;
24455;SDS011;12628;50.860;5.714;2022-12-07T10:29:28;15.45;;;9.95;;
24455;SDS011;12628;50.860;5.714;2022-12-07T10:31:57;16.35;;;9.23;;
24455;SDS011;12628;50.860;5.714;2022-12-07T10:34:26;16.67;;;9.90;;
24455;SDS011;12628;50.860;5.714;2022-12-07T10:37:11;15.15;;;9.57;;
24455;SDS011;12628;50.860;5.714;2022-12-07T10:39:42;14.55;;;9.27;;
24455;SDS011;12628;50.860;5.714;2022-12-07T10:42:18;16.58;;;8.70;;
24455;SDS011;12628;50.860;5.714;2022-12-07T10:44:47;14.57;;;8.65;;
24455;SDS011;12628;50.860;5.714;2022-12-07T10:47:20;12.07;;;8.88;;
24455;SDS011;12628;50.860;5.714;2022-12-07T10:50:02;20.27;;;9.50;;
24455;SDS011;12628;50.860;5.714;2022-12-07T10:55:56;17.45;;;9.52;;
24455;SDS011;12628;50.860;5.714;2022-12-07T10:58:44;14.85;;;9.13;;
24455;SDS011;12628;50.860;5.714;2022-12-07T11:01:22;19.15;;;9.15;;
24455;SDS011;12628;50.860;5.714;2022-12-07T11:04:01;15.77;;;8.70;;
24455;SDS011;12628;50.860;5.714;2022-12-07T11:06:43;18.27;;;8.98;;
24455;SDS011;12628;50.860;5.714;2022-12-07T11:09:52;17.85;;;8.77;;
24455;SDS011;12628;50.860;5.714;2022-12-07T11:12:29;13.45;;;8.23;;
24455;SDS011;12628;50.860;5.714;2022-12-07T11:15:10;13.23;;;6.77;;
24455;SDS011;12628;50.860;5.714;2022-12-07T11:17:45;13.80;;;7.68;;
24455;SDS011;12628;50.860;5.714;2022-12-07T11:20:26;11.32;;;6.88;;
24455;SDS011;12628;50.860;5.714;2022-12-07T11:23:03;8.70;;;5.30;;
24455;SDS011;12628;50.860;5.714;2022-12-07T11:25:39;9.93;;;5.95;;
24455;SDS011;12628;50.860;5.714;2022-12-07T11:28:17;9.80;;;4.85;;
24455;SDS011;12628;50.860;5.714;2022-12-07T11:30:55;13.43;;;6.38;;
24455;SDS011;12628;50.860;5.714;2022-12-07T11:33:36;12.98;;;5.63;;
24455;SDS011;12628;50.860;5.714;2022-12-07T11:36:11;11.20;;;5.57;;
24455;SDS011;12628;50.860;5.714;2022-12-07T11:38:58;12.68;;;5.60;;
24455;SDS011;12628;50.860;5.714;2022-12-07T11:41:29;16.55;;;5.75;;
24455;SDS011;12628;50.860;5.714;2022-12-07T11:44:02;12.88;;;5.88;;
24455;SDS011;12628;50.860;5.714;2022-12-07T11:46:38;10.32;;;5.30;;
24455;SDS011;12628;50.860;5.714;2022-12-07T11:49:14;12.40;;;6.15;;
24455;SDS011;12628;50.860;5.714;2022-12-07T11:51:51;13.20;;;5.88;;
24455;SDS011;12628;50.860;5.714;2022-12-07T11:54:23;15.73;;;6.40;;
24455;SDS011;12628;50.860;5.714;2022-12-07T11:56:54;13.38;;;6.13;;
24455;SDS011;12628;50.860;5.714;2022-12-07T11:59:27;10.18;;;5.97;;
24455;SDS011;12628;50.860;5.714;2022-12-07T12:02:00;9.95;;;5.20;;
24455;SDS011;12628;50.860;5.714;2022-12-07T12:04:43;9.32;;;5.22;;
24455;SDS011;12628;50.860;5.714;2022-12-07T12:07:19;11.88;;;5.38;;
24455;SDS011;12628;50.860;5.714;2022-12-07T12:09:49;9.85;;;5.65;;
24455;SDS011;12628;50.860;5.714;2022-12-07T12:14:55;9.75;;;5.45;;
24455;SDS011;12628;50.860;5.714;2022-12-07T12:17:37;10.93;;;5.93;;
24455;SDS011;12628;50.860;5.714;2022-12-07T12:20:26;12.05;;;5.40;;
24455;SDS011;12628;50.860;5.714;2022-12-07T12:22:58;11.15;;;5.75;;
24455;SDS011;12628;50.860;5.714;2022-12-07T12:25:35;11.30;;;6.50;;
24455;SDS011;12628;50.860;5.714;2022-12-07T12:28:05;11.55;;;5.43;;
24455;SDS011;12628;50.860;5.714;2022-12-07T12:30:44;13.30;;;6.38;;
24455;SDS011;12628;50.860;5.714;2022-12-07T12:33:13;11.70;;;6.38;;
24455;SDS011;12628;50.860;5.714;2022-12-07T12:35:48;13.85;;;6.90;;
24455;SDS011;12628;50.860;5.714;2022-12-07T12:38:48;14.13;;;5.47;;
24455;SDS011;12628;50.860;5.714;2022-12-07T12:44:41;10.55;;;6.00;;
24455;SDS011;12628;50.860;5.714;2022-12-07T12:47:51;14.05;;;5.53;;
24455;SDS011;12628;50.860;5.714;2022-12-07T12:50:27;10.27;;;5.30;;
24455;SDS011;12628;50.860;5.714;2022-12-07T12:53:00;11.70;;;5.45;;
24455;SDS011;12628;50.860;5.714;2022-12-07T12:58:43;12.43;;;5.60;;
24455;SDS011;12628;50.860;5.714;2022-12-07T13:10:25;14.38;;;6.07;;
24455;SDS011;12628;50.860;5.714;2022-12-07T13:13:30;16.85;;;6.30;;
24455;SDS011;12628;50.860;5.714;2022-12-07T13:25:29;8.43;;;4.63;;
24455;SDS011;12628;50.860;5.714;2022-12-07T13:28:01;8.88;;;4.65;;
24455;SDS011;12628;50.860;5.714;2022-12-07T13:30:40;11.65;;;4.78;;
24455;SDS011;12628;50.860;5.714;2022-12-07T13:33:27;12.35;;;5.25;;
24455;SDS011;12628;50.860;5.714;2022-12-07T13:35:56;13.83;;;4.40;;
24455;SDS011;12628;50.860;5.714;2022-12-07T13:38:27;10.48;;;4.55;;
24455;SDS011;12628;50.860;5.714;2022-12-07T13:41:02;9.63;;;4.60;;
24455;SDS011;12628;50.860;5.714;2022-12-07T13:43:41;9.43;;;4.50;;
24455;SDS011;12628;50.860;5.714;2022-12-07T13:46:11;10.00;;;5.05;;
24455;SDS011;12628;50.860;5.714;2022-12-07T13:48:43;9.68;;;5.45;;
24455;SDS011;12628;50.860;5.714;2022-12-07T13:51:17;9.02;;;4.75;;
24455;SDS011;12628;50.860;5.714;2022-12-07T13:53:47;10.52;;;4.25;;
24455;SDS011;12628;50.860;5.714;2022-12-07T13:56:17;8.07;;;3.65;;
24455;SDS011;12628;50.860;5.714;2022-12-07T13:58:47;9.45;;;3.90;;
24455;SDS011;12628;50.860;5.714;2022-12-07T14:01:17;10.43;;;4.25;;
24455;SDS011;12628;50.860;5.714;2022-12-07T14:03:45;11.98;;;3.75;;
24455;SDS011;12628;50.860;5.714;2022-12-07T14:06:25;10.35;;;4.60;;
24455;SDS011;12628;50.860;5.714;2022-12-07T14:09:09;8.77;;;3.75;;
24455;SDS011;12628;50.860;5.714;2022-12-07T14:14:15;8.90;;;4.32;;
24455;SDS011;12628;50.860;5.714;2022-12-07T14:16:54;7.88;;;4.13;;
24455;SDS011;12628;50.860;5.714;2022-12-07T14:22:08;11.73;;;5.20;;
24455;SDS011;12628;50.860;5.714;2022-12-07T14:24:44;10.02;;;4.43;;
24455;SDS011;12628;50.860;5.714;2022-12-07T14:27:20;9.77;;;4.00;;
24455;SDS011;12628;50.860;5.714;2022-12-07T14:29:51;9.23;;;3.75;;
24455;SDS011;12628;50.860;5.714;2022-12-07T14:32:19;8.95;;;2.78;;
24455;SDS011;12628;50.860;5.714;2022-12-07T14:34:54;7.70;;;2.60;;
24455;SDS011;12628;50.860;5.714;2022-12-07T14:37:23;5.75;;;2.40;;
24455;SDS011;12628;50.860;5.714;2022-12-07T14:39:50;8.55;;;2.22;;
24455;SDS011;12628;50.860;5.714;2022-12-07T14:42:19;4.80;;;1.77;;
24455;SDS011;12628;50.860;5.714;2022-12-07T14:44:50;9.38;;;2.45;;
